JAU weather

Colonel Tommy C Stiner Airfield
Jacksboro, Tennessee, United States

Public forecast

Using degrees Fahrenheit for public forecast. Weather courtesy of forecast.io.

Current aviation weather report (METAR) for Colonel Tommy C Stiner Airfield

Retrieved 2020/06/04 00:15 UTC (15 minutes ago):

KJAU 040015Z AUTO 21003KT 10SM CLR 26/22 A2995 RMK A01

Closest aviation forecast (TAF) to Colonel Tommy C Stiner Airfield

Closest forecast is McGhee Tyson Airport, 32.5 nm (60.2 km) SSE. Retrieved 2020-06-04 00:24 UTC (6 minutes ago):

TAF KTYS 032320Z 0400/0424 23006KT P6SM VCSH SCT050 FM040200 22005KT P6SM SCT120 FM041500 24006KT P6SM SCT040 PROB30 0415/0421 4SM TSRA BR BKN040CB FM042100 24006KT P6SM SHRA VCTS BKN040CB